Terminal Aerodrome Forecast
Issued by NWS Twin Cities, MN

Home | Current Version | Previous Version | Graphics & Text | Print | Product List | Glossary On
Versions: 1 2 3 4 5 6 7 8 9 10 11 12 13 14 15
000
FTUS43 KMPX 211100
TAFEAU
TAF
KEAU 211131Z 2112/2212 VRB04KT P6SM SKC
     FM211800 18009KT P6SM FEW020 SCT150
     FM220400 20011KT 2SM BR SCT005 OVC010=

USA.gov is the U.S. government's official web portal to all federal, state and local government web resources and services.